sensor_id;sensor_type;location;lat;lon;timestamp;P1;durP1;ratioP1;P2;durP2;ratioP2
35675;SDS011;21790;42.668;23.298;2022-11-15T00:00:47;54.00;;;24.30;;
35675;SDS011;21790;42.668;23.298;2022-11-15T00:03:14;60.08;;;26.40;;
35675;SDS011;21790;42.668;23.298;2022-11-15T00:05:41;61.83;;;24.90;;
35675;SDS011;21790;42.668;23.298;2022-11-15T00:08:07;62.13;;;26.17;;
35675;SDS011;21790;42.668;23.298;2022-11-15T00:10:32;66.93;;;27.38;;
35675;SDS011;21790;42.668;23.298;2022-11-15T00:12:58;58.72;;;25.45;;
35675;SDS011;21790;42.668;23.298;2022-11-15T00:15:25;63.40;;;25.08;;
35675;SDS011;21790;42.668;23.298;2022-11-15T00:17:50;62.00;;;25.90;;
35675;SDS011;21790;42.668;23.298;2022-11-15T00:20:17;68.15;;;24.83;;
35675;SDS011;21790;42.668;23.298;2022-11-15T00:22:42;58.00;;;24.42;;
35675;SDS011;21790;42.668;23.298;2022-11-15T00:25:08;63.63;;;27.50;;
35675;SDS011;21790;42.668;23.298;2022-11-15T00:27:33;65.15;;;25.65;;
35675;SDS011;21790;42.668;23.298;2022-11-15T00:30:00;60.80;;;24.70;;
35675;SDS011;21790;42.668;23.298;2022-11-15T00:32:25;48.95;;;21.08;;
35675;SDS011;21790;42.668;23.298;2022-11-15T00:34:51;42.95;;;19.45;;
35675;SDS011;21790;42.668;23.298;2022-11-15T00:37:16;53.63;;;21.13;;
35675;SDS011;21790;42.668;23.298;2022-11-15T00:39:42;47.72;;;19.55;;
35675;SDS011;21790;42.668;23.298;2022-11-15T00:42:07;43.38;;;19.75;;
35675;SDS011;21790;42.668;23.298;2022-11-15T00:44:33;42.45;;;19.20;;
35675;SDS011;21790;42.668;23.298;2022-11-15T00:46:58;46.40;;;19.67;;
35675;SDS011;21790;42.668;23.298;2022-11-15T00:49:24;53.25;;;22.33;;
35675;SDS011;21790;42.668;23.298;2022-11-15T00:51:50;51.65;;;22.27;;
35675;SDS011;21790;42.668;23.298;2022-11-15T00:54:15;48.63;;;20.55;;
35675;SDS011;21790;42.668;23.298;2022-11-15T00:56:41;54.28;;;22.20;;
35675;SDS011;21790;42.668;23.298;2022-11-15T00:59:06;48.60;;;20.98;;
35675;SDS011;21790;42.668;23.298;2022-11-15T01:01:31;48.40;;;21.40;;
35675;SDS011;21790;42.668;23.298;2022-11-15T01:03:57;51.72;;;22.27;;
35675;SDS011;21790;42.668;23.298;2022-11-15T01:06:23;50.40;;;21.63;;
35675;SDS011;21790;42.668;23.298;2022-11-15T01:08:49;55.28;;;22.00;;
35675;SDS011;21790;42.668;23.298;2022-11-15T01:11:14;59.00;;;22.88;;
35675;SDS011;21790;42.668;23.298;2022-11-15T01:13:40;56.80;;;22.02;;
35675;SDS011;21790;42.668;23.298;2022-11-15T01:16:06;60.78;;;22.75;;
35675;SDS011;21790;42.668;23.298;2022-11-15T01:18:33;50.97;;;22.80;;
35675;SDS011;21790;42.668;23.298;2022-11-15T01:20:58;59.05;;;22.23;;
35675;SDS011;21790;42.668;23.298;2022-11-15T01:23:24;56.78;;;22.27;;
35675;SDS011;21790;42.668;23.298;2022-11-15T01:25:49;51.65;;;20.45;;
35675;SDS011;21790;42.668;23.298;2022-11-15T01:28:15;53.17;;;22.17;;
35675;SDS011;21790;42.668;23.298;2022-11-15T01:30:40;51.63;;;20.75;;
35675;SDS011;21790;42.668;23.298;2022-11-15T01:33:06;51.83;;;22.05;;
35675;SDS011;21790;42.668;23.298;2022-11-15T01:35:32;51.42;;;20.63;;
35675;SDS011;21790;42.668;23.298;2022-11-15T01:37:57;52.30;;;22.77;;
35675;SDS011;21790;42.668;23.298;2022-11-15T01:40:23;58.40;;;21.88;;
35675;SDS011;21790;42.668;23.298;2022-11-15T01:42:48;54.03;;;23.38;;
35675;SDS011;21790;42.668;23.298;2022-11-15T01:45:14;56.60;;;22.92;;
35675;SDS011;21790;42.668;23.298;2022-11-15T01:47:44;46.95;;;19.73;;
35675;SDS011;21790;42.668;23.298;2022-11-15T01:50:19;43.67;;;20.02;;
35675;SDS011;21790;42.668;23.298;2022-11-15T01:52:50;50.90;;;20.30;;
35675;SDS011;21790;42.668;23.298;2022-11-15T01:55:17;44.35;;;20.55;;
35675;SDS011;21790;42.668;23.298;2022-11-15T01:57:47;55.10;;;19.63;;
35675;SDS011;21790;42.668;23.298;2022-11-15T02:00:15;53.97;;;21.67;;
35675;SDS011;21790;42.668;23.298;2022-11-15T02:02:42;53.75;;;20.50;;
35675;SDS011;21790;42.668;23.298;2022-11-15T02:05:08;45.97;;;19.52;;
35675;SDS011;21790;42.668;23.298;2022-11-15T02:07:34;42.45;;;20.02;;
35675;SDS011;21790;42.668;23.298;2022-11-15T02:10:06;45.53;;;20.70;;
35675;SDS011;21790;42.668;23.298;2022-11-15T02:12:34;50.97;;;19.70;;
35675;SDS011;21790;42.668;23.298;2022-11-15T02:15:00;53.53;;;21.67;;
35675;SDS011;21790;42.668;23.298;2022-11-15T02:33:50;37.58;;;15.15;;
35675;SDS011;21790;42.668;23.298;2022-11-15T02:42:40;50.55;;;19.38;;
35675;SDS011;21790;42.668;23.298;2022-11-15T02:45:22;47.58;;;19.23;;
35675;SDS011;21790;42.668;23.298;2022-11-15T02:47:52;44.47;;;17.90;;
35675;SDS011;21790;42.668;23.298;2022-11-15T02:50:24;40.53;;;18.92;;
35675;SDS011;21790;42.668;23.298;2022-11-15T02:52:52;49.47;;;19.83;;
35675;SDS011;21790;42.668;23.298;2022-11-15T02:55:25;47.90;;;20.27;;
35675;SDS011;21790;42.668;23.298;2022-11-15T03:00:47;44.50;;;18.63;;
35675;SDS011;21790;42.668;23.298;2022-11-15T03:08:46;39.28;;;18.00;;
35675;SDS011;21790;42.668;23.298;2022-11-15T03:11:47;44.28;;;18.13;;
35675;SDS011;21790;42.668;23.298;2022-11-15T03:22:10;56.95;;;22.92;;
35675;SDS011;21790;42.668;23.298;2022-11-15T03:24:39;49.08;;;21.30;;
35675;SDS011;21790;42.668;23.298;2022-11-15T03:27:08;50.63;;;19.55;;
35675;SDS011;21790;42.668;23.298;2022-11-15T03:29:39;40.55;;;18.35;;
35675;SDS011;21790;42.668;23.298;2022-11-15T03:32:12;48.47;;;20.77;;
35675;SDS011;21790;42.668;23.298;2022-11-15T03:35:01;48.53;;;20.52;;
35675;SDS011;21790;42.668;23.298;2022-11-15T03:37:42;44.85;;;19.08;;
35675;SDS011;21790;42.668;23.298;2022-11-15T03:40:47;48.20;;;18.75;;
35675;SDS011;21790;42.668;23.298;2022-11-15T03:46:13;48.55;;;19.48;;
35675;SDS011;21790;42.668;23.298;2022-11-15T03:48:42;46.40;;;18.95;;
35675;SDS011;21790;42.668;23.298;2022-11-15T03:51:15;47.83;;;18.88;;
35675;SDS011;21790;42.668;23.298;2022-11-15T03:53:41;44.72;;;17.73;;
35675;SDS011;21790;42.668;23.298;2022-11-15T03:56:07;43.15;;;18.55;;
35675;SDS011;21790;42.668;23.298;2022-11-15T03:58:35;43.30;;;19.17;;
35675;SDS011;21790;42.668;23.298;2022-11-15T04:01:01;44.80;;;19.58;;
35675;SDS011;21790;42.668;23.298;2022-11-15T04:03:26;55.97;;;21.80;;
35675;SDS011;21790;42.668;23.298;2022-11-15T04:05:52;55.83;;;22.52;;
35675;SDS011;21790;42.668;23.298;2022-11-15T04:08:18;49.75;;;19.70;;
35675;SDS011;21790;42.668;23.298;2022-11-15T04:10:44;58.47;;;22.52;;
35675;SDS011;21790;42.668;23.298;2022-11-15T04:13:10;75.60;;;27.85;;
35675;SDS011;21790;42.668;23.298;2022-11-15T04:15:35;78.60;;;27.83;;
35675;SDS011;21790;42.668;23.298;2022-11-15T04:18:01;89.88;;;27.65;;
35675;SDS011;21790;42.668;23.298;2022-11-15T04:20:28;93.97;;;30.38;;
35675;SDS011;21790;42.668;23.298;2022-11-15T04:23:20;89.60;;;31.83;;
35675;SDS011;21790;42.668;23.298;2022-11-15T04:28:35;84.00;;;27.10;;
35675;SDS011;21790;42.668;23.298;2022-11-15T04:31:20;96.22;;;28.75;;
35675;SDS011;21790;42.668;23.298;2022-11-15T04:33:46;86.70;;;29.55;;
35675;SDS011;21790;42.668;23.298;2022-11-15T04:36:11;90.88;;;30.25;;
35675;SDS011;21790;42.668;23.298;2022-11-15T04:38:55;96.18;;;32.50;;
35675;SDS011;21790;42.668;23.298;2022-11-15T04:41:21;84.90;;;30.85;;
35675;SDS011;21790;42.668;23.298;2022-11-15T04:43:46;99.40;;;29.10;;
35675;SDS011;21790;42.668;23.298;2022-11-15T04:46:12;91.32;;;29.60;;
35675;SDS011;21790;42.668;23.298;2022-11-15T04:48:38;95.03;;;30.02;;
35675;SDS011;21790;42.668;23.298;2022-11-15T04:51:03;84.43;;;27.98;;
35675;SDS011;21790;42.668;23.298;2022-11-15T04:53:29;85.35;;;29.73;;
35675;SDS011;21790;42.668;23.298;2022-11-15T04:55:55;80.35;;;29.55;;
35675;SDS011;21790;42.668;23.298;2022-11-15T04:58:21;82.13;;;28.52;;
35675;SDS011;21790;42.668;23.298;2022-11-15T05:00:46;85.90;;;28.80;;
35675;SDS011;21790;42.668;23.298;2022-11-15T05:03:12;82.35;;;28.88;;
35675;SDS011;21790;42.668;23.298;2022-11-15T05:05:56;78.03;;;28.27;;
35675;SDS011;21790;42.668;23.298;2022-11-15T05:08:22;77.60;;;26.65;;
35675;SDS011;21790;42.668;23.298;2022-11-15T05:10:48;72.38;;;26.42;;
35675;SDS011;21790;42.668;23.298;2022-11-15T05:13:14;77.78;;;24.73;;
35675;SDS011;21790;42.668;23.298;2022-11-15T05:15:39;64.72;;;24.48;;
35675;SDS011;21790;42.668;23.298;2022-11-15T05:18:06;63.67;;;24.98;;
35675;SDS011;21790;42.668;23.298;2022-11-15T05:20:32;59.70;;;22.08;;
35675;SDS011;21790;42.668;23.298;2022-11-15T05:22:58;59.20;;;22.38;;
35675;SDS011;21790;42.668;23.298;2022-11-15T05:25:24;75.78;;;24.80;;
35675;SDS011;21790;42.668;23.298;2022-11-15T05:27:50;59.55;;;24.60;;
35675;SDS011;21790;42.668;23.298;2022-11-15T05:30:15;66.72;;;23.85;;
35675;SDS011;21790;42.668;23.298;2022-11-15T05:32:42;69.93;;;22.45;;
35675;SDS011;21790;42.668;23.298;2022-11-15T05:35:08;65.93;;;23.17;;
35675;SDS011;21790;42.668;23.298;2022-11-15T05:37:52;63.63;;;21.85;;
35675;SDS011;21790;42.668;23.298;2022-11-15T05:50:04;69.45;;;25.35;;
35675;SDS011;21790;42.668;23.298;2022-11-15T05:52:31;81.57;;;28.02;;
35675;SDS011;21790;42.668;23.298;2022-11-15T05:55:00;86.65;;;26.50;;
35675;SDS011;21790;42.668;23.298;2022-11-15T05:57:28;88.97;;;29.27;;
35675;SDS011;21790;42.668;23.298;2022-11-15T05:59:55;78.57;;;31.10;;
35675;SDS011;21790;42.668;23.298;2022-11-15T06:02:21;87.15;;;29.05;;
35675;SDS011;21790;42.668;23.298;2022-11-15T06:04:47;84.80;;;31.23;;
35675;SDS011;21790;42.668;23.298;2022-11-15T06:07:12;88.22;;;31.17;;
35675;SDS011;21790;42.668;23.298;2022-11-15T06:09:38;96.20;;;27.73;;
35675;SDS011;21790;42.668;23.298;2022-11-15T06:12:03;94.47;;;30.70;;
35675;SDS011;21790;42.668;23.298;2022-11-15T06:29:02;97.80;;;28.42;;
35675;SDS011;21790;42.668;23.298;2022-11-15T06:31:29;89.93;;;30.25;;
35675;SDS011;21790;42.668;23.298;2022-11-15T06:33:55;98.25;;;30.20;;
35675;SDS011;21790;42.668;23.298;2022-11-15T07:29:54;120.07;;;38.17;;
35675;SDS011;21790;42.668;23.298;2022-11-15T07:32:19;112.88;;;36.28;;
35675;SDS011;21790;42.668;23.298;2022-11-15T07:34:45;117.35;;;36.70;;
35675;SDS011;21790;42.668;23.298;2022-11-15T07:37:11;123.03;;;38.60;;
35675;SDS011;21790;42.668;23.298;2022-11-15T07:39:37;112.40;;;36.47;;
35675;SDS011;21790;42.668;23.298;2022-11-15T07:42:03;105.47;;;36.33;;
35675;SDS011;21790;42.668;23.298;2022-11-15T07:44:47;88.82;;;32.53;;
35675;SDS011;21790;42.668;23.298;2022-11-15T07:47:13;93.00;;;28.50;;
35675;SDS011;21790;42.668;23.298;2022-11-15T07:49:39;89.22;;;28.42;;
35675;SDS011;21790;42.668;23.298;2022-11-15T07:52:04;94.68;;;31.30;;
35675;SDS011;21790;42.668;23.298;2022-11-15T07:54:30;96.60;;;32.08;;
35675;SDS011;21790;42.668;23.298;2022-11-15T07:56:55;91.65;;;31.98;;
35675;SDS011;21790;42.668;23.298;2022-11-15T07:59:20;109.47;;;33.78;;
35675;SDS011;21790;42.668;23.298;2022-11-15T08:01:46;98.00;;;32.33;;
35675;SDS011;21790;42.668;23.298;2022-11-15T08:04:12;93.32;;;33.75;;
35675;SDS011;21790;42.668;23.298;2022-11-15T08:06:37;89.95;;;31.52;;
35675;SDS011;21790;42.668;23.298;2022-11-15T08:09:03;94.35;;;32.58;;
35675;SDS011;21790;42.668;23.298;2022-11-15T08:11:28;99.22;;;33.53;;
35675;SDS011;21790;42.668;23.298;2022-11-15T08:13:54;94.30;;;33.20;;
35675;SDS011;21790;42.668;23.298;2022-11-15T08:16:19;97.25;;;32.97;;
35675;SDS011;21790;42.668;23.298;2022-11-15T08:18:45;108.50;;;34.13;;
35675;SDS011;21790;42.668;23.298;2022-11-15T08:21:17;117.43;;;35.30;;
35675;SDS011;21790;42.668;23.298;2022-11-15T08:23:46;121.18;;;39.25;;
35675;SDS011;21790;42.668;23.298;2022-11-15T08:26:12;109.40;;;36.42;;
35675;SDS011;21790;42.668;23.298;2022-11-15T08:28:38;108.22;;;36.15;;
35675;SDS011;21790;42.668;23.298;2022-11-15T08:31:04;93.68;;;33.40;;
35675;SDS011;21790;42.668;23.298;2022-11-15T08:33:30;99.57;;;35.03;;
35675;SDS011;21790;42.668;23.298;2022-11-15T08:35:56;103.10;;;37.75;;
35675;SDS011;21790;42.668;23.298;2022-11-15T08:38:22;106.68;;;36.53;;
35675;SDS011;21790;42.668;23.298;2022-11-15T08:41:03;105.65;;;37.95;;
35675;SDS011;21790;42.668;23.298;2022-11-15T08:43:31;101.90;;;37.20;;
35675;SDS011;21790;42.668;23.298;2022-11-15T08:45:56;110.55;;;36.30;;
35675;SDS011;21790;42.668;23.298;2022-11-15T08:48:22;100.28;;;34.60;;
35675;SDS011;21790;42.668;23.298;2022-11-15T08:50:51;98.88;;;36.08;;
35675;SDS011;21790;42.668;23.298;2022-11-15T08:53:19;112.65;;;38.08;;
35675;SDS011;21790;42.668;23.298;2022-11-15T08:55:44;108.22;;;37.78;;
35675;SDS011;21790;42.668;23.298;2022-11-15T08:58:10;105.80;;;38.78;;
35675;SDS011;21790;42.668;23.298;2022-11-15T09:00:35;112.68;;;38.40;;
35675;SDS011;21790;42.668;23.298;2022-11-15T09:03:03;122.60;;;38.15;;
35675;SDS011;21790;42.668;23.298;2022-11-15T09:05:30;128.02;;;39.00;;
35675;SDS011;21790;42.668;23.298;2022-11-15T09:07:55;114.90;;;38.90;;
35675;SDS011;21790;42.668;23.298;2022-11-15T09:10:21;126.32;;;39.10;;
35675;SDS011;21790;42.668;23.298;2022-11-15T09:12:47;122.75;;;38.58;;
35675;SDS011;21790;42.668;23.298;2022-11-15T09:15:13;113.50;;;39.45;;
35675;SDS011;21790;42.668;23.298;2022-11-15T09:17:40;126.05;;;40.88;;
35675;SDS011;21790;42.668;23.298;2022-11-15T09:20:06;118.85;;;38.08;;
35675;SDS011;21790;42.668;23.298;2022-11-15T09:22:33;123.43;;;42.35;;
35675;SDS011;21790;42.668;23.298;2022-11-15T09:24:58;122.28;;;39.53;;
35675;SDS011;21790;42.668;23.298;2022-11-15T09:27:27;109.03;;;40.10;;
35675;SDS011;21790;42.668;23.298;2022-11-15T09:29:56;128.20;;;42.28;;
35675;SDS011;21790;42.668;23.298;2022-11-15T09:32:21;116.40;;;41.10;;
35675;SDS011;21790;42.668;23.298;2022-11-15T09:34:50;120.18;;;42.30;;
35675;SDS011;21790;42.668;23.298;2022-11-15T09:37:16;117.82;;;39.92;;
35675;SDS011;21790;42.668;23.298;2022-11-15T09:39:41;125.15;;;39.75;;
35675;SDS011;21790;42.668;23.298;2022-11-15T09:53:12;115.35;;;39.47;;
35675;SDS011;21790;42.668;23.298;2022-11-15T12:43:53;80.88;;;33.58;;
35675;SDS011;21790;42.668;23.298;2022-11-15T12:52:03;80.53;;;35.53;;
35675;SDS011;21790;42.668;23.298;2022-11-15T13:04:52;93.50;;;35.75;;
35675;SDS011;21790;42.668;23.298;2022-11-15T14:21:05;90.82;;;35.03;;
35675;SDS011;21790;42.668;23.298;2022-11-15T15:03:01;97.95;;;40.55;;
35675;SDS011;21790;42.668;23.298;2022-11-15T15:21:11;105.97;;;42.35;;
35675;SDS011;21790;42.668;23.298;2022-11-15T15:23:44;112.47;;;42.28;;
35675;SDS011;21790;42.668;23.298;2022-11-15T15:26:10;128.88;;;45.03;;
35675;SDS011;21790;42.668;23.298;2022-11-15T15:28:35;105.00;;;44.67;;
35675;SDS011;21790;42.668;23.298;2022-11-15T15:31:03;117.43;;;48.42;;
35675;SDS011;21790;42.668;23.298;2022-11-15T15:33:29;115.78;;;47.58;;
35675;SDS011;21790;42.668;23.298;2022-11-15T15:35:54;141.73;;;50.85;;
35675;SDS011;21790;42.668;23.298;2022-11-15T15:38:20;130.95;;;49.13;;
35675;SDS011;21790;42.668;23.298;2022-11-15T15:43:21;114.13;;;46.43;;
35675;SDS011;21790;42.668;23.298;2022-11-15T16:29:42;120.40;;;47.90;;
35675;SDS011;21790;42.668;23.298;2022-11-15T16:32:08;110.90;;;45.15;;
35675;SDS011;21790;42.668;23.298;2022-11-15T16:34:34;110.20;;;44.55;;
35675;SDS011;21790;42.668;23.298;2022-11-15T16:37:00;105.85;;;43.28;;
35675;SDS011;21790;42.668;23.298;2022-11-15T17:04:14;96.38;;;39.08;;
35675;SDS011;21790;42.668;23.298;2022-11-15T17:06:45;92.38;;;38.05;;
35675;SDS011;21790;42.668;23.298;2022-11-15T17:09:16;97.13;;;38.45;;
35675;SDS011;21790;42.668;23.298;2022-11-15T17:11:48;108.30;;;44.30;;
35675;SDS011;21790;42.668;23.298;2022-11-15T17:16:40;120.18;;;48.92;;
35675;SDS011;21790;42.668;23.298;2022-11-15T17:19:11;125.28;;;46.13;;
35675;SDS011;21790;42.668;23.298;2022-11-15T17:21:39;123.20;;;46.78;;
35675;SDS011;21790;42.668;23.298;2022-11-15T17:24:04;116.55;;;45.13;;
35675;SDS011;21790;42.668;23.298;2022-11-15T17:26:30;115.43;;;46.13;;
35675;SDS011;21790;42.668;23.298;2022-11-15T17:28:55;123.88;;;43.60;;
35675;SDS011;21790;42.668;23.298;2022-11-15T17:31:25;116.00;;;46.08;;
35675;SDS011;21790;42.668;23.298;2022-11-15T17:33:51;108.80;;;43.90;;
35675;SDS011;21790;42.668;23.298;2022-11-15T17:36:17;114.72;;;44.55;;
35675;SDS011;21790;42.668;23.298;2022-11-15T17:38:43;125.07;;;44.13;;
35675;SDS011;21790;42.668;23.298;2022-11-15T17:41:09;111.55;;;43.78;;
35675;SDS011;21790;42.668;23.298;2022-11-15T17:43:37;117.22;;;43.97;;
35675;SDS011;21790;42.668;23.298;2022-11-15T17:46:04;99.68;;;42.15;;
35675;SDS011;21790;42.668;23.298;2022-11-15T17:48:31;118.07;;;45.83;;
35675;SDS011;21790;42.668;23.298;2022-11-15T17:50:58;119.55;;;44.30;;
35675;SDS011;21790;42.668;23.298;2022-11-15T17:53:25;106.20;;;41.45;;
35675;SDS011;21790;42.668;23.298;2022-11-15T17:55:51;106.95;;;43.65;;
35675;SDS011;21790;42.668;23.298;2022-11-15T17:58:17;107.35;;;42.78;;
35675;SDS011;21790;42.668;23.298;2022-11-15T18:00:44;107.38;;;43.67;;
35675;SDS011;21790;42.668;23.298;2022-11-15T18:03:11;110.85;;;44.75;;
35675;SDS011;21790;42.668;23.298;2022-11-15T18:05:37;114.75;;;45.38;;
35675;SDS011;21790;42.668;23.298;2022-11-15T18:08:03;114.55;;;42.78;;
35675;SDS011;21790;42.668;23.298;2022-11-15T18:10:29;124.88;;;46.38;;
35675;SDS011;21790;42.668;23.298;2022-11-15T18:12:54;110.95;;;46.30;;
35675;SDS011;21790;42.668;23.298;2022-11-15T18:15:20;115.50;;;45.08;;
35675;SDS011;21790;42.668;23.298;2022-11-15T18:22:36;129.60;;;51.47;;
35675;SDS011;21790;42.668;23.298;2022-11-15T18:25:01;125.50;;;49.22;;
35675;SDS011;21790;42.668;23.298;2022-11-15T18:27:27;154.43;;;55.85;;
35675;SDS011;21790;42.668;23.298;2022-11-15T18:29:52;160.77;;;58.65;;
35675;SDS011;21790;42.668;23.298;2022-11-15T18:34:43;147.82;;;57.38;;
35675;SDS011;21790;42.668;23.298;2022-11-15T18:37:09;150.10;;;55.70;;
35675;SDS011;21790;42.668;23.298;2022-11-15T18:39:34;154.88;;;59.00;;
35675;SDS011;21790;42.668;23.298;2022-11-15T18:42:00;156.50;;;59.55;;
35675;SDS011;21790;42.668;23.298;2022-11-15T18:44:27;156.65;;;61.17;;
35675;SDS011;21790;42.668;23.298;2022-11-15T18:46:54;141.20;;;57.97;;
35675;SDS011;21790;42.668;23.298;2022-11-15T18:49:19;148.57;;;57.13;;
35675;SDS011;21790;42.668;23.298;2022-11-15T18:51:45;152.25;;;58.58;;
35675;SDS011;21790;42.668;23.298;2022-11-15T18:54:13;150.65;;;60.85;;
35675;SDS011;21790;42.668;23.298;2022-11-15T18:56:40;163.70;;;61.05;;
35675;SDS011;21790;42.668;23.298;2022-11-15T18:59:08;163.70;;;60.65;;
35675;SDS011;21790;42.668;23.298;2022-11-15T19:01:35;175.48;;;63.85;;
35675;SDS011;21790;42.668;23.298;2022-11-15T19:06:29;175.40;;;65.45;;
35675;SDS011;21790;42.668;23.298;2022-11-15T19:08:55;165.70;;;64.10;;
35675;SDS011;21790;42.668;23.298;2022-11-15T19:11:26;182.18;;;65.93;;
35675;SDS011;21790;42.668;23.298;2022-11-15T19:14:00;181.57;;;62.28;;
35675;SDS011;21790;42.668;23.298;2022-11-15T19:16:34;177.90;;;68.55;;
35675;SDS011;21790;42.668;23.298;2022-11-15T19:19:05;171.55;;;64.70;;
35675;SDS011;21790;42.668;23.298;2022-11-15T19:21:32;158.05;;;64.13;;
35675;SDS011;21790;42.668;23.298;2022-11-15T19:23:58;159.40;;;57.00;;
35675;SDS011;21790;42.668;23.298;2022-11-15T19:50:50;134.30;;;54.17;;
35675;SDS011;21790;42.668;23.298;2022-11-15T19:53:16;134.90;;;53.80;;
35675;SDS011;21790;42.668;23.298;2022-11-15T19:55:42;126.03;;;49.63;;
35675;SDS011;21790;42.668;23.298;2022-11-15T19:58:21;139.60;;;49.80;;
35675;SDS011;21790;42.668;23.298;2022-11-15T20:00:47;129.00;;;51.60;;
35675;SDS011;21790;42.668;23.298;2022-11-15T20:03:13;127.70;;;54.00;;
35675;SDS011;21790;42.668;23.298;2022-11-15T20:05:39;139.77;;;54.22;;
35675;SDS011;21790;42.668;23.298;2022-11-15T20:08:05;129.32;;;54.08;;
35675;SDS011;21790;42.668;23.298;2022-11-15T20:10:30;149.77;;;58.70;;
35675;SDS011;21790;42.668;23.298;2022-11-15T20:12:57;157.40;;;58.78;;
35675;SDS011;21790;42.668;23.298;2022-11-15T20:15:23;146.63;;;57.10;;
35675;SDS011;21790;42.668;23.298;2022-11-15T20:17:48;145.85;;;57.22;;
35675;SDS011;21790;42.668;23.298;2022-11-15T20:20:17;152.07;;;56.83;;
35675;SDS011;21790;42.668;23.298;2022-11-15T20:22:42;159.77;;;63.35;;
35675;SDS011;21790;42.668;23.298;2022-11-15T20:25:08;183.52;;;74.63;;
35675;SDS011;21790;42.668;23.298;2022-11-15T20:27:34;151.05;;;61.78;;
35675;SDS011;21790;42.668;23.298;2022-11-15T20:29:59;163.07;;;65.15;;
35675;SDS011;21790;42.668;23.298;2022-11-15T20:32:25;157.20;;;63.85;;
35675;SDS011;21790;42.668;23.298;2022-11-15T20:34:51;155.90;;;62.50;;
35675;SDS011;21790;42.668;23.298;2022-11-15T20:37:17;161.48;;;62.63;;
35675;SDS011;21790;42.668;23.298;2022-11-15T20:39:44;160.70;;;59.83;;
35675;SDS011;21790;42.668;23.298;2022-11-15T20:42:09;149.23;;;59.40;;
35675;SDS011;21790;42.668;23.298;2022-11-15T20:44:35;150.60;;;61.05;;
35675;SDS011;21790;42.668;23.298;2022-11-15T20:47:00;140.30;;;59.10;;
35675;SDS011;21790;42.668;23.298;2022-11-15T20:49:26;137.95;;;56.33;;
35675;SDS011;21790;42.668;23.298;2022-11-15T20:51:52;132.82;;;57.28;;
35675;SDS011;21790;42.668;23.298;2022-11-15T20:54:17;151.68;;;57.63;;
35675;SDS011;21790;42.668;23.298;2022-11-15T20:56:43;141.98;;;55.28;;
35675;SDS011;21790;42.668;23.298;2022-11-15T20:59:09;134.27;;;54.22;;
35675;SDS011;21790;42.668;23.298;2022-11-15T21:01:35;148.45;;;58.53;;
35675;SDS011;21790;42.668;23.298;2022-11-15T21:04:00;139.82;;;58.20;;
35675;SDS011;21790;42.668;23.298;2022-11-15T21:06:25;149.40;;;55.83;;
35675;SDS011;21790;42.668;23.298;2022-11-15T22:13:10;129.15;;;51.15;;
35675;SDS011;21790;42.668;23.298;2022-11-15T22:27:45;129.20;;;51.80;;
35675;SDS011;21790;42.668;23.298;2022-11-15T22:30:11;124.57;;;50.65;;
35675;SDS011;21790;42.668;23.298;2022-11-15T22:32:37;121.65;;;50.63;;
35675;SDS011;21790;42.668;23.298;2022-11-15T22:35:02;124.95;;;51.83;;
35675;SDS011;21790;42.668;23.298;2022-11-15T22:37:28;127.43;;;52.03;;
35675;SDS011;21790;42.668;23.298;2022-11-15T22:39:53;134.68;;;52.72;;
35675;SDS011;21790;42.668;23.298;2022-11-15T22:42:19;126.45;;;53.17;;
35675;SDS011;21790;42.668;23.298;2022-11-15T22:44:45;131.02;;;52.22;;
35675;SDS011;21790;42.668;23.298;2022-11-15T22:47:11;131.85;;;54.80;;
35675;SDS011;21790;42.668;23.298;2022-11-15T22:49:37;130.50;;;55.70;;
35675;SDS011;21790;42.668;23.298;2022-11-15T22:52:02;135.02;;;52.92;;
35675;SDS011;21790;42.668;23.298;2022-11-15T22:54:28;126.97;;;54.50;;
35675;SDS011;21790;42.668;23.298;2022-11-15T22:56:53;147.98;;;57.45;;
35675;SDS011;21790;42.668;23.298;2022-11-15T22:59:19;162.32;;;56.03;;
35675;SDS011;21790;42.668;23.298;2022-11-15T23:01:44;136.80;;;59.05;;
35675;SDS011;21790;42.668;23.298;2022-11-15T23:04:10;124.50;;;54.78;;
35675;SDS011;21790;42.668;23.298;2022-11-15T23:06:36;126.95;;;52.55;;
35675;SDS011;21790;42.668;23.298;2022-11-15T23:09:01;132.93;;;53.03;;
35675;SDS011;21790;42.668;23.298;2022-11-15T23:11:27;138.93;;;55.25;;
35675;SDS011;21790;42.668;23.298;2022-11-15T23:14:11;147.52;;;56.80;;
35675;SDS011;21790;42.668;23.298;2022-11-15T23:16:37;134.43;;;54.00;;
35675;SDS011;21790;42.668;23.298;2022-11-15T23:19:04;145.00;;;56.70;;
35675;SDS011;21790;42.668;23.298;2022-11-15T23:21:33;144.85;;;57.40;;
35675;SDS011;21790;42.668;23.298;2022-11-15T23:24:19;127.90;;;50.33;;
35675;SDS011;21790;42.668;23.298;2022-11-15T23:26:46;131.55;;;52.47;;
35675;SDS011;21790;42.668;23.298;2022-11-15T23:29:14;113.68;;;48.58;;
35675;SDS011;21790;42.668;23.298;2022-11-15T23:31:41;140.38;;;54.35;;
35675;SDS011;21790;42.668;23.298;2022-11-15T23:34:26;136.45;;;52.33;;
35675;SDS011;21790;42.668;23.298;2022-11-15T23:36:52;125.45;;;49.67;;
35675;SDS011;21790;42.668;23.298;2022-11-15T23:39:18;127.30;;;52.05;;
35675;SDS011;21790;42.668;23.298;2022-11-15T23:41:43;119.57;;;49.13;;
35675;SDS011;21790;42.668;23.298;2022-11-15T23:44:09;123.32;;;49.92;;
35675;SDS011;21790;42.668;23.298;2022-11-15T23:46:34;120.88;;;49.30;;
35675;SDS011;21790;42.668;23.298;2022-11-15T23:49:00;115.88;;;52.13;;
35675;SDS011;21790;42.668;23.298;2022-11-15T23:51:26;124.72;;;49.97;;
35675;SDS011;21790;42.668;23.298;2022-11-15T23:53:57;123.88;;;50.20;;
35675;SDS011;21790;42.668;23.298;2022-11-15T23:56:23;122.07;;;49.72;;
35675;SDS011;21790;42.668;23.298;2022-11-15T23:58:54;127.75;;;50.92;;
